Time;durP1;ratioP1;P1;durP2;ratioP2;P2;SDS_P1;SDS_P2;PMS_P1;PMS_P2;Temp;Humidity;BMP_temperature;BMP_pressure;BME280_temperature;BME280_humidity;BME280_pressure;Samples;Min_cycle;Max_cycle;Signal;HPM_P1;HPM_P2
2021/07/10 00:02:20;;;;;;;20.83;15.63;;;16.50;94.40;;;;;;3593249;40;20045;-84
2021/07/10 00:04:46;;;;;;;22.98;17.25;;;16.50;94.40;;;;;;3566173;40;20324;-84
2021/07/10 00:07:12;;;;;;;24.48;18.00;;;16.40;94.40;;;;;;3593369;40;20105;-85
2021/07/10 00:09:38;;;;;;;22.08;17.45;;;16.40;94.40;;;;;;3602203;39;20124;-84
2021/07/10 00:12:04;;;;;;;22.35;17.75;;;16.30;94.50;;;;;;3595451;40;20048;-85
2021/07/10 00:14:30;;;;;;;23.02;18.98;;;16.30;94.60;;;;;;3595054;40;20330;-87
2021/07/10 00:16:56;;;;;;;21.80;16.55;;;16.20;95.00;;;;;;3626016;22;20035;-88
2021/07/10 00:19:23;;;;;;;20.08;16.65;;;16.20;95.00;;;;;;3605546;39;20035;-90
2021/07/10 00:21:50;;;;;;;22.55;18.05;;;16.10;95.00;;;;;;3599572;39;20094;-88
2021/07/10 00:24:16;;;;;;;21.95;18.20;;;16.00;95.00;;;;;;3619094;39;20043;-88
2021/07/10 00:26:42;;;;;;;23.67;18.50;;;16.00;95.00;;;;;;3600695;39;20038;-86
2021/07/10 00:29:08;;;;;;;21.13;16.85;;;16.00;95.10;;;;;;3609417;39;20039;-89
2021/07/10 00:31:34;;;;;;;29.52;19.40;;;15.90;95.60;;;;;;3607811;39;20140;-87
2021/07/10 00:34:00;;;;;;;25.67;19.35;;;15.90;95.20;;;;;;3596732;39;20040;-86
2021/07/10 00:36:26;;;;;;;25.90;18.67;;;15.90;95.30;;;;;;3599740;39;20046;-85
2021/07/10 00:38:53;;;;;;;23.88;18.92;;;15.80;95.50;;;;;;3599220;39;20036;-85
2021/07/10 00:41:19;;;;;;;24.73;18.50;;;15.80;95.40;;;;;;3596851;39;20043;-85
2021/07/10 00:43:51;;;;;;;23.92;18.30;;;15.80;95.40;;;;;;3572697;23;20042;-85
2021/07/10 00:46:21;;;;;;;23.95;19.40;;;15.70;95.40;;;;;;3547915;40;20344;-86
2021/07/10 00:48:48;;;;;;;23.67;17.45;;;15.70;95.60;;;;;;3548003;40;20050;-85
2021/07/10 00:51:15;;;;;;;30.42;18.38;;;15.70;95.70;;;;;;3566438;40;20045;-84
2021/07/10 00:53:41;;;;;;;26.52;19.42;;;15.60;95.70;;;;;;3555730;40;20041;-86
2021/07/10 00:56:08;;;;;;;22.67;17.20;;;15.60;95.70;;;;;;3567075;40;20157;-84
2021/07/10 00:58:35;;;;;;;24.15;19.38;;;15.60;95.70;;;;;;3549143;40;20037;-84
2021/07/10 01:01:02;;;;;;;27.17;17.98;;;15.60;95.70;;;;;;3566859;40;20052;-85
2021/07/10 01:03:32;;;;;;;22.92;17.15;;;15.50;95.80;;;;;;3565133;40;20118;-86
2021/07/10 01:05:59;;;;;;;25.60;18.83;;;15.60;95.80;;;;;;3566737;40;20034;-85
2021/07/10 01:08:25;;;;;;;20.60;17.08;;;15.60;95.80;;;;;;3554841;40;20046;-85
2021/07/10 01:10:51;;;;;;;20.23;15.57;;;15.60;95.70;;;;;;3554506;40;20042;-84
2021/07/10 01:13:21;;;;;;;22.15;16.85;;;15.60;95.70;;;;;;3556997;39;20339;-89
2021/07/10 01:15:47;;;;;;;23.27;18.88;;;15.60;95.70;;;;;;3595053;39;20037;-90
2021/07/10 01:18:13;;;;;;;25.00;19.65;;;15.70;95.80;;;;;;3601892;39;20486;-86
2021/07/10 01:20:53;;;;;;;23.88;18.25;;;15.70;95.70;;;;;;3606679;22;20049;-85
2021/07/10 01:23:19;;;;;;;22.13;17.58;;;15.70;96.10;;;;;;3556153;40;20034;-85
2021/07/10 01:25:46;;;;;;;26.08;19.65;;;15.70;95.80;;;;;;3556832;40;20058;-87
2021/07/10 01:28:13;;;;;;;20.90;16.15;;;15.70;95.80;;;;;;3547758;40;20045;-87
2021/07/10 01:30:41;;;;;;;24.98;17.55;;;15.70;95.90;;;;;;3560204;40;20055;-86
2021/07/10 01:33:07;;;;;;;19.92;16.88;;;15.80;96.00;;;;;;3559608;40;20054;-86
2021/07/10 01:35:34;;;;;;;17.85;15.25;;;15.80;96.00;;;;;;3558799;40;20057;-87
2021/07/10 01:38:03;;;;;;;22.17;16.30;;;15.80;95.80;;;;;;3559645;40;20038;-84
2021/07/10 01:40:28;;;;;;;22.77;15.93;;;15.80;95.80;;;;;;3560190;40;20038;-84
2021/07/10 01:42:55;;;;;;;17.50;13.48;;;15.80;95.80;;;;;;3592217;22;20074;-85
2021/07/10 01:45:22;;;;;;;21.85;16.05;;;15.80;95.70;;;;;;3611245;39;20044;-85
2021/07/10 01:47:50;;;;;;;19.65;14.57;;;15.90;95.80;;;;;;3608595;39;20115;-84
2021/07/10 01:50:17;;;;;;;20.90;15.20;;;15.90;95.80;;;;;;3609527;39;20041;-85
2021/07/10 01:52:44;;;;;;;26.55;18.52;;;15.90;95.80;;;;;;3599616;39;20331;-86
2021/07/10 01:55:14;;;;;;;24.35;17.77;;;15.80;95.90;;;;;;3579537;40;20043;-85
2021/07/10 01:57:43;;;;;;;23.50;18.40;;;15.80;95.90;;;;;;3611201;23;20043;-85
2021/07/10 02:00:29;;;;;;;20.55;16.58;;;15.80;95.90;;;;;;3599131;39;20032;-83
2021/07/10 02:02:56;;;;;;;20.35;16.63;;;15.80;96.20;;;;;;3608187;39;20698;-85
2021/07/10 02:05:27;;;;;;;21.58;16.00;;;15.80;95.90;;;;;;3603929;39;20365;-84
2021/07/10 02:07:53;;;;;;;19.35;15.15;;;15.80;96.00;;;;;;3608118;39;20040;-86
2021/07/10 02:10:20;;;;;;;20.10;16.05;;;15.70;96.20;;;;;;3598753;39;20040;-84
2021/07/10 02:12:57;;;;;;;22.88;16.20;;;15.70;95.90;;;;;;3594374;39;20036;-84
2021/07/10 02:15:24;;;;;;;16.95;14.77;;;15.70;96.00;;;;;;3621866;22;20117;-84
2021/07/10 02:17:50;;;;;;;19.77;16.15;;;15.70;95.90;;;;;;3604034;39;20233;-85
2021/07/10 02:20:21;;;;;;;20.98;15.85;;;15.70;95.90;;;;;;3572023;40;20098;-85
2021/07/10 02:22:48;;;;;;;20.25;15.35;;;15.70;95.90;;;;;;3593238;39;20047;-86
2021/07/10 02:25:16;;;;;;;20.10;15.07;;;15.70;95.90;;;;;;3626134;22;20072;-85
2021/07/10 02:27:43;;;;;;;20.58;16.85;;;15.70;96.10;;;;;;3631391;22;20061;-85
2021/07/10 02:30:12;;;;;;;18.95;15.38;;;15.70;96.10;;;;;;3597156;39;20059;-86
2021/07/10 02:32:39;;;;;;;19.42;15.55;;;15.70;96.10;;;;;;3591131;39;20043;-85
2021/07/10 02:35:09;;;;;;;20.85;15.38;;;15.70;96.10;;;;;;3607864;39;20547;-84
2021/07/10 02:37:36;;;;;;;17.27;14.27;;;15.60;96.10;;;;;;3615891;39;20050;-85
2021/07/10 02:40:05;;;;;;;22.08;15.23;;;15.60;96.10;;;;;;3608390;39;20406;-87
2021/07/10 02:42:31;;;;;;;21.17;14.07;;;15.50;96.20;;;;;;3603706;39;20374;-85
2021/07/10 02:44:58;;;;;;;19.10;16.02;;;15.50;96.10;;;;;;3609190;39;20039;-85
2021/07/10 02:47:24;;;;;;;20.88;16.38;;;15.50;96.00;;;;;;3613538;39;20043;-86
2021/07/10 02:49:50;;;;;;;20.33;15.30;;;15.50;96.30;;;;;;3607440;39;20043;-85
2021/07/10 02:52:16;;;;;;;22.38;16.10;;;15.50;96.20;;;;;;3599025;39;20059;-86
2021/07/10 02:54:42;;;;;;;20.75;16.33;;;15.40;96.40;;;;;;3598502;39;20031;-85
2021/07/10 02:57:08;;;;;;;24.15;17.05;;;15.40;96.40;;;;;;3613720;39;20055;-86
2021/07/10 02:59:34;;;;;;;23.65;14.65;;;15.30;96.50;;;;;;3617971;39;20054;-87
2021/07/10 03:02:00;;;;;;;25.40;17.90;;;15.30;96.50;;;;;;3618068;39;20047;-86
2021/07/10 03:04:26;;;;;;;20.10;15.63;;;15.30;96.50;;;;;;3618231;39;20663;-87
2021/07/10 03:06:52;;;;;;;19.40;15.65;;;15.30;96.40;;;;;;3617748;39;20041;-87
2021/07/10 03:09:17;;;;;;;24.98;17.15;;;15.20;96.40;;;;;;3617373;39;20039;-86
2021/07/10 03:11:44;;;;;;;20.75;15.30;;;15.20;96.50;;;;;;3590690;39;20031;-87
2021/07/10 03:14:10;;;;;;;18.17;14.00;;;15.20;96.70;;;;;;3617798;39;20250;-87
2021/07/10 03:16:35;;;;;;;18.67;14.18;;;15.10;96.50;;;;;;3617480;39;20059;-86
2021/07/10 03:19:01;;;;;;;20.85;14.98;;;15.10;96.50;;;;;;3620585;23;20031;-86
2021/07/10 03:21:27;;;;;;;18.48;14.20;;;15.10;96.50;;;;;;3606930;39;20036;-86
2021/07/10 03:23:53;;;;;;;20.15;15.48;;;15.10;96.50;;;;;;3614716;39;20046;-86
2021/07/10 03:26:19;;;;;;;21.15;14.75;;;15.10;96.70;;;;;;3617528;39;20035;-88
2021/07/10 03:28:45;;;;;;;23.30;16.70;;;15.10;96.70;;;;;;3599231;39;20047;-85
2021/07/10 03:31:10;;;;;;;19.70;14.90;;;15.10;96.80;;;;;;3600315;39;20051;-86
2021/07/10 03:33:38;;;;;;;18.02;13.80;;;15.10;96.80;;;;;;3597138;39;20039;-86
2021/07/10 03:36:05;;;;;;;18.98;13.77;;;15.10;96.80;;;;;;3603055;39;20078;-86
2021/07/10 03:38:33;;;;;;;21.27;15.23;;;15.10;96.80;;;;;;3607266;39;20062;-86
2021/07/10 03:40:58;;;;;;;20.85;15.73;;;15.10;96.80;;;;;;3605722;39;20027;-86
2021/07/10 03:43:24;;;;;;;20.77;15.75;;;15.10;96.80;;;;;;3606954;39;20039;-87
2021/07/10 03:45:52;;;;;;;23.17;16.80;;;15.10;96.80;;;;;;3606651;39;20047;-86
2021/07/10 03:48:21;;;;;;;26.02;18.05;;;15.20;97.30;;;;;;3587290;40;20629;-86
2021/07/10 03:50:47;;;;;;;20.98;15.75;;;15.20;97.10;;;;;;3587116;40;20043;-86
2021/07/10 03:53:13;;;;;;;21.67;17.80;;;15.20;97.00;;;;;;3589006;39;20047;-86
2021/07/10 03:55:40;;;;;;;26.98;19.35;;;15.20;97.10;;;;;;3607400;39;20040;-86
2021/07/10 03:58:06;;;;;;;26.08;17.88;;;15.30;97.20;;;;;;3614225;39;20319;-86
2021/07/10 04:00:32;;;;;;;26.90;18.15;;;15.30;97.20;;;;;;3613975;39;20175;-86
2021/07/10 04:02:58;;;;;;;24.35;16.67;;;15.30;97.20;;;;;;3616812;39;20038;-86
2021/07/10 04:05:24;;;;;;;22.70;18.02;;;15.30;97.30;;;;;;3616806;39;20249;-87
2021/07/10 04:07:50;;;;;;;26.35;18.95;;;15.30;97.30;;;;;;3613226;22;20044;-86
2021/07/10 04:10:17;;;;;;;24.20;17.88;;;15.30;97.20;;;;;;3595441;39;20042;-87
2021/07/10 04:12:44;;;;;;;23.75;16.98;;;15.30;97.10;;;;;;3613605;39;20321;-87
2021/07/10 04:15:13;;;;;;;24.08;17.17;;;15.30;97.10;;;;;;3609776;39;20078;-89
2021/07/10 04:17:39;;;;;;;24.13;18.92;;;15.30;97.20;;;;;;3613885;39;20099;-86
2021/07/10 04:20:08;;;;;;;23.92;18.05;;;15.30;97.30;;;;;;3605921;39;20094;-83
2021/07/10 04:22:35;;;;;;;23.60;16.98;;;15.40;97.30;;;;;;3606260;39;20123;-85
2021/07/10 04:25:04;;;;;;;26.90;17.92;;;15.50;97.20;;;;;;3618079;39;20026;-86
2021/07/10 04:27:33;;;;;;;23.17;18.60;;;15.50;97.20;;;;;;3608469;39;20322;-87
2021/07/10 04:30:00;;;;;;;27.08;18.13;;;15.50;97.20;;;;;;3605622;39;20039;-85
2021/07/10 04:32:27;;;;;;;26.83;20.60;;;15.60;97.10;;;;;;3599310;39;20139;-86
2021/07/10 04:34:54;;;;;;;30.23;21.20;;;15.70;97.10;;;;;;3612015;39;20047;-90
2021/07/10 04:37:20;;;;;;;30.08;21.35;;;15.70;97.20;;;;;;3634323;22;20132;-87
2021/07/10 04:39:46;;;;;;;27.83;19.60;;;15.70;97.20;;;;;;3608759;39;20051;-87
2021/07/10 04:42:12;;;;;;;23.23;18.55;;;15.80;97.20;;;;;;3595965;40;20044;-87
2021/07/10 04:44:38;;;;;;;28.13;20.98;;;15.80;97.20;;;;;;3580458;40;20051;-86
2021/07/10 04:47:05;;;;;;;29.75;20.58;;;15.80;97.10;;;;;;3595636;40;20035;-86
2021/07/10 04:49:32;;;;;;;24.60;19.13;;;15.90;97.10;;;;;;3588086;40;20234;-86
2021/07/10 04:51:57;;;;;;;24.30;17.88;;;15.90;97.10;;;;;;3595609;40;20040;-83
2021/07/10 04:54:23;;;;;;;25.30;20.23;;;16.00;97.10;;;;;;3595724;40;20374;-87
2021/07/10 04:56:49;;;;;;;26.17;18.63;;;16.00;97.40;;;;;;3595554;40;20067;-83
2021/07/10 04:59:15;;;;;;;23.35;16.90;;;16.10;97.10;;;;;;3595989;39;20055;-85
2021/07/10 05:01:41;;;;;;;23.45;16.63;;;16.20;97.10;;;;;;3607664;39;20070;-84
2021/07/10 05:04:06;;;;;;;19.95;15.40;;;16.20;97.10;;;;;;3607624;39;20452;-87
2021/07/10 05:06:32;;;;;;;19.00;15.73;;;16.10;97.00;;;;;;3591045;39;20121;-85
2021/07/10 05:08:58;;;;;;;21.27;16.00;;;16.10;97.00;;;;;;3591394;39;20035;-84
2021/07/10 05:11:24;;;;;;;20.92;15.45;;;16.10;97.10;;;;;;3608914;39;20040;-82
2021/07/10 05:13:51;;;;;;;19.55;16.30;;;16.20;97.20;;;;;;3613386;22;20047;-81
2021/07/10 05:16:17;;;;;;;23.38;15.80;;;16.30;97.10;;;;;;3583640;40;20044;-85
2021/07/10 05:18:43;;;;;;;19.98;15.52;;;16.40;97.00;;;;;;3576139;40;20037;-84
2021/07/10 05:21:08;;;;;;;19.25;15.60;;;16.40;96.90;;;;;;3588415;40;20048;-85
2021/07/10 05:23:34;;;;;;;24.33;18.08;;;16.40;96.90;;;;;;3566853;40;20040;-82
2021/07/10 05:26:01;;;;;;;21.23;16.35;;;16.40;96.90;;;;;;3586913;40;20045;-83
2021/07/10 05:28:26;;;;;;;22.58;17.27;;;16.40;96.80;;;;;;3586928;40;20086;-82
2021/07/10 05:30:52;;;;;;;23.63;17.83;;;16.40;96.90;;;;;;3585901;40;20045;-84
2021/07/10 05:33:19;;;;;;;20.75;16.95;;;16.40;96.90;;;;;;3573319;40;20415;-82
2021/07/10 05:35:46;;;;;;;20.65;16.77;;;16.50;96.90;;;;;;3581337;40;20068;-85
2021/07/10 05:38:17;;;;;;;22.52;17.77;;;16.50;97.00;;;;;;3589041;40;20044;-84
2021/07/10 05:40:44;;;;;;;20.20;15.77;;;16.50;97.10;;;;;;3578154;40;20059;-86
2021/07/10 05:43:10;;;;;;;22.45;17.23;;;16.60;97.00;;;;;;3585895;40;20065;-88
2021/07/10 05:45:36;;;;;;;21.75;15.52;;;16.60;96.90;;;;;;3578681;40;20241;-86
2021/07/10 05:48:02;;;;;;;24.10;16.35;;;16.70;96.90;;;;;;3584471;40;20044;-86
2021/07/10 05:50:28;;;;;;;17.65;14.18;;;16.80;97.10;;;;;;3581440;40;20090;-88
2021/07/10 05:52:53;;;;;;;16.33;14.38;;;16.90;96.90;;;;;;3614319;22;20044;-86
2021/07/10 05:55:19;;;;;;;17.52;13.38;;;17.10;96.90;;;;;;3571269;40;20036;-89
2021/07/10 05:57:45;;;;;;;15.13;12.98;;;17.30;96.60;;;;;;3591757;40;20069;-90
2021/07/10 06:00:12;;;;;;;13.95;10.15;;;17.50;96.70;;;;;;3594562;40;20464;-87
2021/07/10 06:02:39;;;;;;;12.40;9.43;;;17.60;96.00;;;;;;3596958;40;20036;-86
2021/07/10 06:05:06;;;;;;;10.18;8.05;;;17.70;95.80;;;;;;3598367;40;20046;-88
2021/07/10 06:07:32;;;;;;;10.60;9.27;;;17.80;95.60;;;;;;3606577;40;20167;-88
2021/07/10 06:09:58;;;;;;;9.32;8.15;;;18.00;95.40;;;;;;3591263;40;20070;-89
2021/07/10 06:12:24;;;;;;;8.95;8.00;;;18.10;95.30;;;;;;3594546;40;21058;-87
2021/07/10 06:14:49;;;;;;;10.02;8.95;;;18.20;95.00;;;;;;3601698;40;20546;-89
2021/07/10 06:17:15;;;;;;;14.77;9.90;;;18.40;94.80;;;;;;3595926;40;20072;-87
2021/07/10 06:19:42;;;;;;;10.98;9.73;;;18.50;94.50;;;;;;3588344;40;20044;-87
2021/07/10 06:22:08;;;;;;;9.52;7.93;;;18.50;94.30;;;;;;3588081;40;20087;-87
2021/07/10 06:24:35;;;;;;;8.85;7.95;;;18.60;94.20;;;;;;3579024;40;20067;-90
2021/07/10 06:27:01;;;;;;;10.15;9.15;;;18.60;94.30;;;;;;3594806;40;20299;-84
2021/07/10 06:29:27;;;;;;;8.60;7.70;;;18.70;94.00;;;;;;3598220;40;20040;-87
2021/07/10 06:31:52;;;;;;;10.00;9.00;;;18.80;93.90;;;;;;3598561;40;20087;-90
2021/07/10 06:34:18;;;;;;;12.10;10.35;;;18.90;93.90;;;;;;3600448;40;20429;-86
2021/07/10 06:36:44;;;;;;;9.65;8.10;;;19.00;94.00;;;;;;3592823;40;20035;-88
2021/07/10 06:39:10;;;;;;;9.77;8.77;;;19.20;93.90;;;;;;3600602;40;20032;-88
2021/07/10 06:41:38;;;;;;;8.75;7.43;;;19.30;93.80;;;;;;3592477;40;20044;-84
2021/07/10 06:44:04;;;;;;;9.32;8.48;;;19.30;93.10;;;;;;3598541;39;20032;-84
2021/07/10 06:46:30;;;;;;;9.48;8.57;;;19.30;93.30;;;;;;3592533;40;20266;-88
2021/07/10 06:48:56;;;;;;;9.68;8.70;;;19.30;93.00;;;;;;3594846;40;20065;-85
2021/07/10 06:51:22;;;;;;;7.43;6.70;;;19.30;93.50;;;;;;3590057;40;20032;-86
2021/07/10 06:53:48;;;;;;;7.68;6.72;;;19.30;93.60;;;;;;3581832;40;20052;-82
2021/07/10 06:56:14;;;;;;;9.15;8.25;;;19.30;93.40;;;;;;3586402;40;20051;-85
2021/07/10 06:58:40;;;;;;;7.57;6.78;;;19.40;93.50;;;;;;3593794;40;20036;-81
2021/07/10 07:01:06;;;;;;;9.20;8.27;;;19.40;93.40;;;;;;3596474;40;20130;-84
2021/07/10 07:03:32;;;;;;;8.43;7.15;;;19.50;93.20;;;;;;3580367;40;20235;-87
2021/07/10 07:05:58;;;;;;;8.45;7.47;;;19.50;93.40;;;;;;3572181;40;20040;-85
2021/07/10 07:08:24;;;;;;;9.15;6.30;;;19.60;93.30;;;;;;3596026;40;20362;-87
2021/07/10 07:10:50;;;;;;;7.78;5.70;;;19.60;93.40;;;;;;3598552;40;20067;-82
2021/07/10 07:13:16;;;;;;;5.70;5.13;;;19.60;92.70;;;;;;3582883;40;20059;-81
2021/07/10 07:15:42;;;;;;;5.63;4.95;;;19.70;92.80;;;;;;3580115;40;20044;-85
2021/07/10 07:18:07;;;;;;;5.10;4.50;;;19.80;93.20;;;;;;3590066;40;20040;-83
2021/07/10 07:20:33;;;;;;;7.05;4.57;;;19.90;93.40;;;;;;3592223;40;20048;-85
2021/07/10 07:22:59;;;;;;;2.92;2.63;;;20.10;92.60;;;;;;3583876;40;20040;-86
2021/07/10 07:25:25;;;;;;;3.53;2.40;;;20.00;92.20;;;;;;3584155;40;20072;-85
2021/07/10 07:27:52;;;;;;;2.45;2.25;;;19.90;92.00;;;;;;3574844;40;20044;-84
2021/07/10 07:30:18;;;;;;;3.63;3.30;;;19.90;92.60;;;;;;3594677;40;20044;-80
2021/07/10 07:32:45;;;;;;;5.07;3.58;;;20.10;92.60;;;;;;3583986;40;20047;-85
2021/07/10 07:35:13;;;;;;;4.53;3.17;;;20.20;92.10;;;;;;3573303;40;20048;-83
2021/07/10 07:37:39;;;;;;;3.95;2.83;;;20.10;91.90;;;;;;3590686;40;20037;-86
2021/07/10 07:40:07;;;;;;;5.07;2.70;;;20.10;92.30;;;;;;3584712;40;20113;-87
2021/07/10 07:42:34;;;;;;;2.90;2.70;;;20.00;92.00;;;;;;3581104;40;20044;-83
2021/07/10 07:45:00;;;;;;;3.63;3.33;;;20.00;92.40;;;;;;3595743;40;20413;-85
2021/07/10 07:47:26;;;;;;;4.68;3.22;;;20.00;92.20;;;;;;3592524;40;20052;-88
2021/07/10 07:49:51;;;;;;;3.78;2.97;;;19.90;92.60;;;;;;3583847;40;20230;-82
2021/07/10 07:52:18;;;;;;;3.25;3.00;;;20.00;92.60;;;;;;3582182;40;20073;-83
2021/07/10 07:54:43;;;;;;;3.25;2.90;;;20.00;92.20;;;;;;3588200;40;20040;-83
2021/07/10 07:57:10;;;;;;;5.50;3.00;;;20.00;92.30;;;;;;3583954;40;20323;-83
2021/07/10 07:59:36;;;;;;;3.15;2.85;;;20.00;92.30;;;;;;3587461;40;20035;-82
2021/07/10 08:02:01;;;;;;;3.88;3.08;;;20.00;92.30;;;;;;3596491;40;20043;-83
2021/07/10 08:04:27;;;;;;;3.92;2.28;;;20.00;91.90;;;;;;3569101;40;20047;-85
2021/07/10 08:06:53;;;;;;;2.35;2.15;;;20.10;92.40;;;;;;3569761;40;20069;-83
2021/07/10 08:09:19;;;;;;;2.80;2.38;;;20.10;92.30;;;;;;3573065;40;20555;-83
2021/07/10 08:11:45;;;;;;;3.38;2.60;;;20.20;92.20;;;;;;3568353;40;20712;-83
2021/07/10 08:14:12;;;;;;;4.88;2.88;;;20.30;91.90;;;;;;3568848;40;20132;-85
2021/07/10 08:16:39;;;;;;;4.05;2.10;;;20.40;92.10;;;;;;3562880;40;20045;-83
2021/07/10 08:19:05;;;;;;;2.30;2.10;;;20.50;91.70;;;;;;3571297;40;20037;-82
2021/07/10 08:21:33;;;;;;;2.65;2.00;;;20.60;91.70;;;;;;3557752;40;20109;-87
2021/07/10 08:24:00;;;;;;;2.72;2.40;;;20.70;91.60;;;;;;3584491;40;20032;-86
2021/07/10 08:26:27;;;;;;;1.85;1.63;;;20.80;91.10;;;;;;3596589;40;20055;-84
2021/07/10 08:28:54;;;;;;;2.28;1.83;;;20.80;91.50;;;;;;3591224;40;20052;-90
2021/07/10 08:31:21;;;;;;;2.58;1.88;;;20.90;90.80;;;;;;3576103;40;20121;-85
2021/07/10 08:33:47;;;;;;;3.80;2.13;;;21.00;91.60;;;;;;3591600;40;20036;-85
2021/07/10 08:36:13;;;;;;;2.58;2.13;;;21.00;90.40;;;;;;3582866;40;20242;-84
2021/07/10 08:38:38;;;;;;;2.33;2.13;;;21.00;90.20;;;;;;3584871;40;20024;-83
2021/07/10 08:41:08;;;;;;;2.50;1.50;;;21.00;90.50;;;;;;3606455;22;20042;-83
2021/07/10 08:43:36;;;;;;;4.60;2.42;;;21.10;89.40;;;;;;3584851;40;20040;-87
2021/07/10 08:46:04;;;;;;;2.75;1.50;;;21.30;90.80;;;;;;3586793;40;20043;-86
2021/07/10 08:48:33;;;;;;;2.17;1.85;;;21.50;90.80;;;;;;3598930;40;20036;-85
2021/07/10 08:51:03;;;;;;;2.45;1.77;;;21.50;90.00;;;;;;3592410;40;20035;-84
2021/07/10 08:53:30;;;;;;;2.25;2.08;;;21.40;88.90;;;;;;3593033;40;20036;-87
2021/07/10 08:55:56;;;;;;;2.03;1.92;;;21.30;90.20;;;;;;3597908;40;20047;-86
2021/07/10 08:58:22;;;;;;;2.50;1.92;;;21.30;88.70;;;;;;3599789;40;20109;-87
2021/07/10 09:00:49;;;;;;;2.40;1.45;;;21.20;89.50;;;;;;3590458;40;20079;-89
2021/07/10 09:03:15;;;;;;;2.42;1.88;;;21.20;90.00;;;;;;3599012;40;20097;-87
2021/07/10 09:05:45;;;;;;;2.08;1.63;;;21.30;90.00;;;;;;3596091;40;20040;-86
2021/07/10 09:08:23;;;;;;;2.17;2.03;;;21.40;88.90;;;;;;3585992;40;20035;-87
2021/07/10 09:10:54;;;;;;;1.95;1.30;;;21.30;84.90;;;;;;3586731;40;20351;-85
2021/07/10 09:13:21;;;;;;;1.40;1.25;;;21.20;88.50;;;;;;3601631;39;20047;-86
2021/07/10 09:15:48;;;;;;;2.30;1.83;;;21.20;87.00;;;;;;3591689;40;20445;-85
2021/07/10 09:18:15;;;;;;;1.92;1.80;;;21.00;87.80;;;;;;3597758;39;20050;-86
2021/07/10 09:20:44;;;;;;;2.80;1.48;;;20.80;88.70;;;;;;3601576;39;20024;-88
2021/07/10 09:23:23;;;;;;;4.65;2.15;;;20.80;90.50;;;;;;3607502;39;20287;-85
2021/07/10 09:25:49;;;;;;;2.15;1.15;;;21.10;87.20;;;;;;3598445;39;20035;-88
2021/07/10 09:28:15;;;;;;;3.83;1.73;;;21.40;88.70;;;;;;3610734;39;20046;-85
2021/07/10 09:30:43;;;;;;;1.90;1.80;;;21.60;86.10;;;;;;3606166;39;20097;-85
2021/07/10 09:33:21;;;;;;;1.92;1.33;;;21.50;84.90;;;;;;3603482;39;20040;-90
2021/07/10 09:35:59;;;;;;;2.63;1.80;;;21.30;86.70;;;;;;3602268;39;20055;-87
2021/07/10 09:38:33;;;;;;;1.60;1.50;;;21.40;84.00;;;;;;3604520;39;20035;-86
2021/07/10 09:40:59;;;;;;;1.70;1.60;;;21.60;85.80;;;;;;3599791;39;20031;-87
2021/07/10 09:43:27;;;;;;;1.70;1.60;;;21.50;84.80;;;;;;3613730;22;20084;-86
2021/07/10 09:45:55;;;;;;;1.95;1.85;;;21.50;85.30;;;;;;3594303;40;20350;-89
2021/07/10 09:48:26;;;;;;;1.90;1.25;;;21.50;85.60;;;;;;3598452;40;20073;-88
2021/07/10 09:51:20;;;;;;;2.15;1.48;;;21.30;84.10;;;;;;3598167;40;20043;-88
2021/07/10 09:54:06;;;;;;;2.17;1.42;;;21.20;82.90;;;;;;3588650;40;20035;-88
2021/07/10 09:56:37;;;;;;;1.48;1.23;;;21.10;79.00;;;;;;3602623;40;20034;-88
2021/07/10 09:59:20;;;;;;;1.77;1.00;;;20.90;85.00;;;;;;3593332;40;20049;-91
2021/07/10 10:01:47;;;;;;;1.33;0.97;;;20.70;79.80;;;;;;3596103;40;20061;-85
2021/07/10 10:04:42;;;;;;;1.75;1.15;;;20.50;86.40;;;;;;3595232;40;20035;-84
2021/07/10 10:07:11;;;;;;;2.33;1.42;;;20.40;82.00;;;;;;3568841;40;20083;-84
2021/07/10 10:09:37;;;;;;;1.77;1.13;;;20.50;84.80;;;;;;3593939;40;20338;-88
2021/07/10 10:12:06;;;;;;;2.00;1.55;;;20.70;88.30;;;;;;3592660;40;20068;-84
2021/07/10 10:14:35;;;;;;;1.85;1.27;;;21.00;86.10;;;;;;3580044;40;20455;-84
2021/07/10 10:17:01;;;;;;;2.10;0.90;;;21.20;84.80;;;;;;3594747;40;20040;-86
2021/07/10 10:19:32;;;;;;;2.38;1.38;;;21.10;83.30;;;;;;3594617;39;20044;-84
2021/07/10 10:22:02;;;;;;;1.45;1.35;;;21.00;84.20;;;;;;3595455;40;20072;-84
2021/07/10 10:24:30;;;;;;;1.23;0.90;;;21.00;83.00;;;;;;3588103;40;20032;-90
2021/07/10 10:26:57;;;;;;;1.63;1.02;;;20.90;82.30;;;;;;3595288;40;20044;-86
2021/07/10 10:29:24;;;;;;;3.55;1.27;;;20.80;84.70;;;;;;3584959;40;20044;-86
2021/07/10 10:31:51;;;;;;;2.30;1.30;;;20.70;84.30;;;;;;3594637;40;20069;-86
2021/07/10 10:34:18;;;;;;;2.42;1.40;;;20.70;85.70;;;;;;3605906;23;20044;-85
2021/07/10 10:36:46;;;;;;;2.60;1.45;;;20.80;84.70;;;;;;3586752;40;20344;-84
2021/07/10 10:39:35;;;;;;;4.28;1.60;;;20.80;83.80;;;;;;3593041;40;20371;-84
2021/07/10 10:42:24;;;;;;;2.90;1.20;;;20.90;82.20;;;;;;3581674;40;20347;-85
2021/07/10 10:44:56;;;;;;;1.38;1.27;;;21.10;82.40;;;;;;3594348;40;20035;-87
2021/07/10 10:47:24;;;;;;;2.10;0.77;;;21.20;83.40;;;;;;3595587;40;20050;-85
2021/07/10 10:49:53;;;;;;;1.40;1.30;;;21.20;83.00;;;;;;3571145;40;20043;-84
2021/07/10 10:52:32;;;;;;;1.33;1.10;;;21.10;82.70;;;;;;3585680;40;20057;-84
2021/07/10 10:55:04;;;;;;;1.35;1.23;;;21.00;81.60;;;;;;3595098;40;20044;-87
2021/07/10 10:57:37;;;;;;;1.05;0.88;;;21.10;84.20;;;;;;3578979;40;20039;-86
2021/07/10 11:00:15;;;;;;;1.30;1.20;;;21.20;83.90;;;;;;3605444;23;20277;-87
2021/07/10 11:02:52;;;;;;;1.20;1.10;;;21.20;84.30;;;;;;3574701;40;20036;-85
2021/07/10 11:05:29;;;;;;;2.10;1.27;;;21.20;80.10;;;;;;3577626;40;20271;-84
2021/07/10 11:08:14;;;;;;;2.30;1.85;;;21.30;84.00;;;;;;3566233;40;20081;-84
2021/07/10 11:10:40;;;;;;;2.47;1.25;;;21.60;78.10;;;;;;3572416;40;20072;-88
2021/07/10 11:13:06;;;;;;;2.03;1.35;;;21.80;84.40;;;;;;3537894;40;20341;-85
2021/07/10 11:15:41;;;;;;;2.92;1.35;;;21.90;82.80;;;;;;3554147;40;20099;-84
2021/07/10 11:18:27;;;;;;;1.10;1.00;;;21.90;77.80;;;;;;3531364;40;20055;-86
2021/07/10 11:20:54;;;;;;;2.15;2.05;;;21.80;77.90;;;;;;3555142;40;20053;-83
2021/07/10 11:23:34;;;;;;;1.50;1.40;;;21.70;82.50;;;;;;3544462;40;20053;-82
2021/07/10 11:26:27;;;;;;;1.60;1.40;;;21.70;81.20;;;;;;3573254;23;20034;-85
2021/07/10 11:28:54;;;;;;;2.55;2.03;;;21.90;79.30;;;;;;3559316;40;20053;-88
2021/07/10 11:31:26;;;;;;;1.83;1.10;;;22.10;83.10;;;;;;3579599;40;20052;-86
2021/07/10 11:36:38;;;;;;;1.17;1.08;;;22.20;83.70;;;;;;3602747;23;20040;-86
2021/07/10 11:39:23;;;;;;;1.50;0.93;;;21.90;80.10;;;;;;3584322;40;20033;-84
2021/07/10 11:41:49;;;;;;;1.50;0.82;;;21.70;78.20;;;;;;3589730;40;20441;-88
2021/07/10 11:44:21;;;;;;;2.33;1.35;;;21.70;84.90;;;;;;3592765;40;20052;-87
2021/07/10 11:47:05;;;;;;;1.10;0.88;;;21.70;82.00;;;;;;3572102;40;20134;-88
2021/07/10 11:49:35;;;;;;;1.23;1.13;;;21.70;83.20;;;;;;3596905;40;20071;-84
2021/07/10 11:52:11;;;;;;;2.05;1.20;;;21.70;82.90;;;;;;3612812;23;20044;-88
2021/07/10 11:54:39;;;;;;;2.65;1.17;;;21.90;83.60;;;;;;3601570;23;20090;-90
2021/07/10 11:57:07;;;;;;;2.10;1.10;;;22.00;83.80;;;;;;3575477;40;20502;-88
2021/07/10 11:59:34;;;;;;;2.38;1.20;;;22.20;83.60;;;;;;3570589;40;20045;-87
2021/07/10 12:02:20;;;;;;;1.42;1.13;;;22.20;83.60;;;;;;3639525;23;20040;-87
2021/07/10 12:05:01;;;;;;;1.98;1.13;;;22.40;79.90;;;;;;3580925;40;20065;-85
2021/07/10 12:07:29;;;;;;;2.25;1.90;;;22.60;80.30;;;;;;3605108;23;20667;-86
2021/07/10 12:09:55;;;;;;;0.88;0.70;;;22.70;82.40;;;;;;3583013;40;20041;-85
2021/07/10 12:12:22;;;;;;;1.27;1.05;;;22.80;81.70;;;;;;3570496;40;20044;-84
2021/07/10 12:14:56;;;;;;;2.75;1.30;;;22.40;81.10;;;;;;3587330;40;20048;-87
2021/07/10 12:17:26;;;;;;;1.38;1.27;;;22.10;78.40;;;;;;3598829;40;20033;-83
2021/07/10 12:19:52;;;;;;;1.13;1.02;;;22.30;82.30;;;;;;3594917;40;20673;-85
2021/07/10 12:22:22;;;;;;;1.65;1.05;;;22.60;82.50;;;;;;3593343;40;20080;-85
2021/07/10 12:24:58;;;;;;;1.15;1.05;;;22.70;81.50;;;;;;3594794;40;20227;-88
2021/07/10 12:27:24;;;;;;;1.42;1.13;;;22.80;81.10;;;;;;3586412;40;20238;-84
2021/07/10 12:29:52;;;;;;;1.00;0.90;;;22.80;80.50;;;;;;3577550;40;20040;-85
2021/07/10 12:32:18;;;;;;;1.48;1.38;;;23.00;81.30;;;;;;3605140;23;20037;-87
2021/07/10 12:34:49;;;;;;;1.85;1.55;;;23.30;79.30;;;;;;3584914;40;20151;-86
2021/07/10 12:37:28;;;;;;;1.42;0.90;;;23.30;78.60;;;;;;3612754;23;20519;-88
2021/07/10 12:40:11;;;;;;;1.85;1.35;;;23.20;73.10;;;;;;3593221;40;20040;-88
2021/07/10 12:42:38;;;;;;;1.02;0.90;;;22.90;73.70;;;;;;3593148;40;20041;-87
2021/07/10 12:45:08;;;;;;;1.13;1.02;;;22.60;78.80;;;;;;3599316;40;20077;-87
2021/07/10 12:47:35;;;;;;;1.65;0.88;;;22.60;78.20;;;;;;3597180;40;20507;-90